Flight Track Log - Related Links

Times and Time Zones

All times are in EDT time to prevent confusion due to time zone crossing. See the FLG3729 flight status page for this flight to view local times or setup timezone preferences in your user account.

Time Position Orientation Groundspeed Altitude Reporting Facility
EDT Latitude Longitude Course Direction KTS MPH feet Rate Location/Type
Fri 05:59:19 AM 42.7694 -73.8089 359° North 163 188 1,100  Level Boston Center
Fri 05:59:44 AM 42.7903 -73.8094 359° North 161 185 1,800 1,780 Climbing Boston Center
Fri 06:00:50 AM 42.8269 -73.8783 306° West 221 254 3,800 1,984 Climbing Boston Center
Fri 06:01:51 AM 42.8531 -73.9467 298° West 258 297 6,000 2,727 Climbing Boston Center
Fri 06:02:51 AM 42.8956 -74.0528 299° West 268 308 9,300 2,550 Climbing Boston Center
Fri 06:03:51 AM 42.9378 -74.1503 301° West 291 335 11,100 1,364 Climbing Boston Center
Fri 06:05:03 AM 42.9586 -74.2786 283° West 321 369 12,300 1,500 Climbing Boston Center
Fri 06:06:03 AM 42.9786 -74.4494 279° West 375 432 14,400 1,900 Climbing Boston Center
Fri 06:07:03 AM 42.9931 -74.5775 279° West 382 440 16,100 1,750 Climbing Boston Center
Fri 06:08:03 AM 43.0108 -74.7344 279° West 387 445 17,900 1,700 Climbing Boston Center
Fri 06:09:03 AM 43.0269 -74.8656 280° West 387 445 19,500 1,700 Climbing Boston Center
Fri 06:10:03 AM 43.0425 -75.0056 279° West 387 445 21,300 1,500 Climbing Boston Center
Fri 06:11:03 AM 43.0561 -75.1425 278° West 387 445 22,500 1,100 Climbing Boston Center
Fri 06:12:03 AM 43.0694 -75.2853 277° West 381 438 23,500 950 Climbing Boston Center
Fri 06:13:03 AM 43.0864 -75.4367 279° West 381 438 24,400 850 Climbing Boston Center
Fri 06:14:03 AM 43.1011 -75.5825 278° West 381 438 25,200 800 Climbing Boston Center
Fri 06:15:03 AM 43.1139 -75.7256 277° West 381 438 26,000 800 Climbing Boston Center
Fri 06:16:03 AM 43.1303 -75.8714 279° West 386 444 26,800 577 Climbing Boston Center
Fri 06:18:31 AM 43.1594 -76.2197 277° West 388 447 28,000 346 Climbing Cleveland Center
Fri 06:19:31 AM 43.1464 -76.3742 263° West 395 455 28,000  Level Cleveland Center
Fri 06:20:31 AM 43.1333 -76.5317 264° West 413 475 28,000  Level Cleveland Center
Fri 06:21:31 AM 43.1164 -76.7064 262° West 418 481 28,000  Level Cleveland Center
Fri 06:22:31 AM 43.1028 -76.8636 263° West 423 487 28,000  Level Cleveland Center
Fri 06:23:31 AM 43.0889 -77.0208 263° West 423 487 28,000  Level Cleveland Center
Fri 06:24:31 AM 43.0750 -77.1781 263° West 423 487 28,000  Level Cleveland Center
Fri 06:25:31 AM 43.0608 -77.3381 263° West 423 487 28,000  Level Cleveland Center
Fri 06:26:31 AM 43.0442 -77.4953 262° West 429 494 28,000  Level Cleveland Center
Fri 06:27:31 AM 43.0275 -77.6550 262° West 429 494 28,000  Level Cleveland Center
Fri 06:28:31 AM 43.0128 -77.8147 263° West 429 494 28,000  Level Cleveland Center
Fri 06:29:31 AM 42.9978 -77.9772 263° West 429 494 28,000  Level Cleveland Center
Fri 06:30:31 AM 42.9825 -78.1397 263° West 429 494 28,000  Level Cleveland Center
Fri 06:31:31 AM 42.9672 -78.3019 263° West 429 494 28,000  Level Cleveland Center
Fri 06:32:31 AM 42.9472 -78.4644 261° West 434 499 28,000  Level Cleveland Center
Fri 06:33:31 AM 42.9336 -78.6294 264° West 434 499 28,000  Level Cleveland Center
Fri 06:34:31 AM 42.9111 -78.7917 259° West 434 499 28,000  Level Cleveland Center
Fri 06:35:31 AM 42.8844 -78.9539 257° West 440 506 28,000  Level Cleveland Center
Fri 06:36:31 AM 42.8614 -79.1161 259° West 440 506 28,000  Level Cleveland Center
Fri 06:37:31 AM 42.8406 -79.2778 260° West 440 506 28,000  Level Cleveland Center
Fri 06:38:31 AM 42.8172 -79.4397 259° West 440 506 28,000  Level Cleveland Center
Fri 06:39:31 AM 42.7936 -79.6014 259° West 440 506 28,000  Level Cleveland Center
Fri 06:40:31 AM 42.7658 -79.7603 257° West 440 506 28,000  Level Cleveland Center
Fri 06:41:31 AM 42.7481 -79.9244 262° West 440 506 28,000  Level Cleveland Center
Fri 06:42:31 AM 42.7425 -80.0714 267° West 446 513 28,000  Level Cleveland Center
Fri 06:43:31 AM 42.7347 -80.2356 266° West 441 507 28,000  Level Cleveland Center
Fri 06:44:31 AM 42.7269 -80.3967 266° West 434 499 28,000  Level Cleveland Center
Fri 06:45:31 AM 42.7208 -80.5578 267° West 434 499 28,000  Level Cleveland Center
Fri 06:46:31 AM 42.7144 -80.7217 267° West 434 499 28,000 -250 Level Cleveland Center
Fri 06:47:31 AM 42.7056 -80.9025 266° West 440 506 27,500 -500 Descending Cleveland Center
Fri 06:48:31 AM 42.6883 -81.0719 262° West 440 506 27,000 -550 Descending Cleveland Center
Fri 06:49:31 AM 42.6667 -81.2383 260° West 452 520 26,400 -550 Descending Cleveland Center
Fri 06:50:31 AM 42.6469 -81.4075 261° West 452 520 25,900 -500 Descending Cleveland Center
Fri 06:51:31 AM 42.6267 -81.5819 261° West 459 528 25,400 -650 Descending Cleveland Center
Fri 06:52:31 AM 42.6064 -81.7481 261° West 465 535 24,600 -6,700 Descending Cleveland Center
Fri 06:53:31 AM 42.5858 -81.9142 261° West 460 529 12,000 -2,400 Descending Cleveland Center
Fri 06:54:31 AM 42.5672 -82.0689 261° West 449 517 19,800 2,700 Climbing Cleveland Center
Fri 06:55:31 AM 42.5486 -82.2206 261° West 434 499 17,400 -2,372 Descending Cleveland Center
Fri 06:55:57 AM 42.5433 -82.2881 264° West 398 458 16,400 -2,455 Descending Cleveland Center
Fri 06:56:15 AM 42.5344 -82.3358 256° West 394 453 15,600 -2,824 Descending Cleveland Center
Fri 06:56:31 AM 42.5319 -82.3639 263° West 410 472 14,800 -2,459 Descending Cleveland Center
Fri 06:57:16 AM 42.5197 -82.4761 262° West 383 441 13,100 -2,300 Descending Cleveland Center
Fri 06:57:31 AM 42.5128 -82.5069 253° West 396 456 12,500 -1,082 Descending Cleveland Center
Fri 06:58:17 AM 42.4861 -82.6103 251° West 386 444 12,000 -283 Descending Cleveland Center
Fri 06:59:17 AM 42.4400 -82.7411 245° Southwest 378 435 12,000  Level Cleveland Center
Fri 07:00:12 AM 42.3958 -82.8606 243° Southwest 379 436 12,000  Level Cleveland Center
Fri 07:00:31 AM 42.3828 -82.8967 244° Southwest 385 443 12,000  Level Cleveland Center
Fri 07:01:19 AM 42.3472 -82.9964 244° Southwest 362 417 12,000 -157 Level Cleveland Center
Fri 07:02:26 AM 42.3072 -83.1100 245° Southwest 264 304 11,700 -469 Descending Cleveland Center
Fri 07:03:27 AM 42.2558 -83.1725 222° Southwest 271 312 11,000 -672 Descending Cleveland Center
Fri 07:04:22 AM 42.1944 -83.2178 209° Southwest 274 315 10,400 -1,138 Descending Cleveland Center
Fri 07:05:23 AM 42.1247 -83.2625 205° Southwest 278 320 8,800 -1,574 Descending Cleveland Center
Fri 07:06:24 AM 42.0547 -83.3097 207° Southwest 272 313 7,200 -1,736 Descending Cleveland Center
Fri 07:07:24 AM 42.0114 -83.3722 227° Southwest 227 261 5,300 -1,785 Descending Cleveland Center
Fri 07:08:25 AM 42.0453 -83.4353 306° West 209 241 3,600 -1,180 Descending Cleveland Center
Fri 07:09:26 AM 42.0978 -83.4264 North 163 188 2,900 -689 Descending Cleveland Center

Login

Don't have an account? Register now (free) for customized features, flight alerts, and more!